Terminal Aerodrome Forecast
Issued by NWS Sterling, VA

Current Version | Previous Version | Text Only | Print | Product List | Glossary Off
Versions: 1 2 3 4 5 6 7 8 9 10 11 12 13 14 15 16 17 18 19 20

000
FTUS41 KLWX 201100
TAFMRB
TAF
KMRB 201126Z 2012/2112 00000KT P6SM FEW015 OVC050
     FM201500 13006KT P6SM BKN050
     FM210900 00000KT P6SM OVC025=

USA.gov is the U.S. government's official web portal to all federal, state and local government web resources and services.